createdAt,value
2019-02-10T00:00:06.603Z,993.9
2019-02-10T00:01:08.717Z,993.9
2019-02-10T00:02:11.643Z,993.9
2019-02-10T00:03:13.768Z,993.8
2019-02-10T00:04:15.865Z,993.8
2019-02-10T00:05:17.990Z,993.9
2019-02-10T00:06:25.177Z,993.9
2019-02-10T00:07:27.301Z,993.8
2019-02-10T00:08:29.397Z,993.8
2019-02-10T00:09:31.579Z,993.8
2019-02-10T00:10:33.691Z,993.8
2019-02-10T00:11:35.798Z,993.8
2019-02-10T00:12:37.958Z,993.8
2019-02-10T00:13:40.064Z,993.8
2019-02-10T00:14:42.178Z,993.8
2019-02-10T00:15:44.280Z,993.8
2019-02-10T00:16:46.680Z,993.8
2019-02-10T00:17:48.811Z,993.8
2019-02-10T00:18:50.934Z,993.8
2019-02-10T00:19:53.373Z,993.7
2019-02-10T00:20:55.488Z,993.8
2019-02-10T00:21:57.589Z,993.8
2019-02-10T00:22:59.696Z,993.8
2019-02-10T00:24:01.824Z,993.8
2019-02-10T00:25:03.933Z,993.8
2019-02-10T00:26:06.047Z,993.8
2019-02-10T00:27:08.237Z,993.9
2019-02-10T00:28:10.338Z,993.9
2019-02-10T00:29:12.476Z,993.8
2019-02-10T00:30:14.585Z,993.8
2019-02-10T00:31:16.993Z,993.8
2019-02-10T00:32:19.377Z,993.8
2019-02-10T00:33:21.785Z,993.8
2019-02-10T00:34:24.281Z,993.9
2019-02-10T00:35:26.820Z,993.8
2019-02-10T00:36:33.753Z,993.9
2019-02-10T00:37:35.900Z,993.9
2019-02-10T00:38:38.044Z,993.9
2019-02-10T00:39:40.170Z,993.9
2019-02-10T00:40:42.287Z,993.9
2019-02-10T00:41:44.390Z,993.8
2019-02-10T00:42:46.510Z,993.9
2019-02-10T00:43:48.614Z,993.9
2019-02-10T00:44:50.731Z,993.9
2019-02-10T00:45:52.870Z,993.8
2019-02-10T00:46:55.251Z,993.9
2019-02-10T00:47:57.361Z,993.8
2019-02-10T00:48:59.524Z,993.8
2019-02-10T00:50:02.320Z,993.8
2019-02-10T00:51:04.435Z,993.9
2019-02-10T00:52:06.554Z,993.8
2019-02-10T00:53:08.659Z,993.8
2019-02-10T00:54:10.771Z,993.8
2019-02-10T00:55:12.894Z,993.8
2019-02-10T00:56:15.007Z,993.8
2019-02-10T00:57:17.108Z,993.8
2019-02-10T00:58:19.240Z,993.7
2019-02-10T00:59:21.347Z,993.8
2019-02-10T01:00:23.459Z,993.7
2019-02-10T01:01:26.338Z,993.7
2019-02-10T01:02:28.737Z,993.7
2019-02-10T01:03:30.853Z,993.8
2019-02-10T01:04:33.631Z,993.7
2019-02-10T01:05:35.780Z,993.7
2019-02-10T01:06:41.918Z,993.7
2019-02-10T01:07:44.047Z,993.7
2019-02-10T01:08:46.167Z,993.6
2019-02-10T01:09:48.277Z,993.6
2019-02-10T01:10:50.412Z,993.6
2019-02-10T01:11:52.516Z,993.7
2019-02-10T01:12:54.662Z,993.6
2019-02-10T01:13:56.778Z,993.6
2019-02-10T01:14:59.292Z,993.6
2019-02-10T01:16:01.557Z,993.6
2019-02-10T01:17:03.687Z,993.7
2019-02-10T01:18:06.102Z,993.7
2019-02-10T01:19:08.211Z,993.7
2019-02-10T01:20:10.617Z,993.6
2019-02-10T01:21:13.007Z,993.7
2019-02-10T01:22:15.113Z,993.7
2019-02-10T01:23:17.221Z,993.7
2019-02-10T01:24:19.348Z,993.8
2019-02-10T01:25:21.456Z,993.8
2019-02-10T01:26:23.858Z,993.8
2019-02-10T01:27:25.968Z,993.7
2019-02-10T01:28:28.071Z,993.7
2019-02-10T01:29:30.186Z,993.8
2019-02-10T01:30:32.363Z,993.8
2019-02-10T01:31:34.794Z,993.9
2019-02-10T01:32:36.904Z,993.8
2019-02-10T01:33:39.357Z,993.8
2019-02-10T01:34:41.476Z,993.7
2019-02-10T01:35:43.570Z,993.8
2019-02-10T01:36:50.221Z,993.7
2019-02-10T01:37:52.348Z,993.7
2019-02-10T01:38:54.777Z,993.7
2019-02-10T01:39:57.272Z,993.7
2019-02-10T01:40:59.681Z,993.7
2019-02-10T01:42:01.842Z,993.7
2019-02-10T01:43:03.998Z,993.7
2019-02-10T01:44:06.131Z,993.7
2019-02-10T01:45:08.623Z,993.7
2019-02-10T01:46:10.737Z,993.7
2019-02-10T01:47:13.136Z,993.7
2019-02-10T01:48:15.277Z,993.7
2019-02-10T01:49:17.378Z,993.7
2019-02-10T01:50:19.498Z,993.7
2019-02-10T01:51:21.619Z,993.7
2019-02-10T01:52:23.722Z,993.6
2019-02-10T01:53:26.234Z,993.6
2019-02-10T01:54:28.651Z,993.6
2019-02-10T01:55:31.829Z,993.6
2019-02-10T01:56:35.049Z,993.6
2019-02-10T01:57:37.455Z,993.6
2019-02-10T01:58:39.564Z,993.6
2019-02-10T01:59:41.687Z,993.6
2019-02-10T02:00:43.801Z,993.5
2019-02-10T02:01:45.906Z,993.5
2019-02-10T02:02:48.020Z,993.5
2019-02-10T02:03:50.424Z,993.5
2019-02-10T02:04:52.526Z,993.4
2019-02-10T02:05:54.932Z,993.4
2019-02-10T02:06:58.386Z,993.4
2019-02-10T02:08:00.507Z,993.4
2019-02-10T02:09:02.665Z,993.4
2019-02-10T02:10:05.373Z,993.4
2019-02-10T02:11:07.786Z,993.3
2019-02-10T02:12:09.891Z,993.3
2019-02-10T02:13:12.062Z,993.3
2019-02-10T02:14:14.163Z,993.3
2019-02-10T02:15:16.561Z,993.3
2019-02-10T02:16:18.723Z,993.3
2019-02-10T02:17:20.823Z,993.3
2019-02-10T02:18:23.230Z,993.3
2019-02-10T02:19:25.382Z,993.4
2019-02-10T02:20:27.529Z,993.3
2019-02-10T02:21:29.633Z,993.3
2019-02-10T02:22:31.754Z,993.3
2019-02-10T02:23:33.878Z,993.3
2019-02-10T02:24:35.986Z,993.3
2019-02-10T02:25:38.124Z,993.3
2019-02-10T02:26:40.245Z,993.3
2019-02-10T02:27:42.656Z,993.2
2019-02-10T02:28:44.784Z,993.3
2019-02-10T02:29:46.901Z,993.3
2019-02-10T02:30:49.012Z,993.3
2019-02-10T02:31:51.438Z,993.2
2019-02-10T02:32:54.534Z,993.2
2019-02-10T02:33:56.654Z,993.3
2019-02-10T02:34:58.814Z,993.2
2019-02-10T02:36:00.934Z,993.2
2019-02-10T02:37:08.528Z,993.2
2019-02-10T02:38:10.685Z,993.3
2019-02-10T02:39:12.800Z,993.3
2019-02-10T02:40:14.918Z,993.2
2019-02-10T02:41:17.060Z,993.2
2019-02-10T02:42:19.160Z,993.2
2019-02-10T02:43:21.297Z,993.2
2019-02-10T02:44:23.815Z,993.2
2019-02-10T02:45:26.006Z,993.3
2019-02-10T02:46:28.126Z,993.1
2019-02-10T02:47:30.232Z,993.2
2019-02-10T02:48:32.358Z,993.2
2019-02-10T02:49:35.072Z,993.2
2019-02-10T02:50:37.467Z,993
2019-02-10T02:51:39.991Z,993
2019-02-10T02:52:42.431Z,993.1
2019-02-10T02:53:44.571Z,993.1
2019-02-10T02:54:47.346Z,993.1
2019-02-10T02:55:49.474Z,993.1
2019-02-10T02:56:51.993Z,993
2019-02-10T02:57:54.695Z,993.1
2019-02-10T02:58:56.837Z,993
2019-02-10T02:59:58.963Z,993
2019-02-10T03:01:01.082Z,993
2019-02-10T03:02:03.206Z,993
2019-02-10T03:03:05.730Z,993
2019-02-10T03:04:07.874Z,993
2019-02-10T03:05:10.047Z,993
2019-02-10T03:06:12.753Z,993
2019-02-10T03:07:18.493Z,993
2019-02-10T03:08:21.302Z,992.8
2019-02-10T03:09:23.441Z,992.9
2019-02-10T03:10:25.850Z,992.8
2019-02-10T03:11:28.010Z,992.8
2019-02-10T03:12:30.135Z,992.9
2019-02-10T03:13:32.259Z,992.8
2019-02-10T03:14:34.701Z,992.7
2019-02-10T03:15:37.109Z,992.8
2019-02-10T03:16:39.235Z,992.7
2019-02-10T03:17:41.635Z,992.8
2019-02-10T03:18:51.912Z,992.8
2019-02-10T03:19:55.518Z,992.7
2019-02-10T03:20:58.071Z,992.7
2019-02-10T03:22:00.476Z,992.7
2019-02-10T03:23:02.592Z,992.7
2019-02-10T03:24:05.172Z,992.6
2019-02-10T03:25:07.349Z,992.6
2019-02-10T03:26:09.559Z,992.6
2019-02-10T03:27:12.273Z,992.6
2019-02-10T03:28:14.666Z,992.6
2019-02-10T03:29:16.804Z,992.5
2019-02-10T03:30:18.941Z,992.5
2019-02-10T03:31:21.372Z,992.6
2019-02-10T03:32:23.847Z,992.5
2019-02-10T03:33:26.361Z,992.6
2019-02-10T03:34:28.581Z,992.6
2019-02-10T03:35:30.719Z,992.6
2019-02-10T03:36:32.835Z,992.6
2019-02-10T03:37:35.346Z,992.6
2019-02-10T03:38:37.476Z,992.6
2019-02-10T03:39:39.585Z,992.6
2019-02-10T03:40:42.130Z,992.5
2019-02-10T03:41:44.651Z,992.6
2019-02-10T03:42:47.049Z,992.5
2019-02-10T03:43:49.449Z,992.5
2019-02-10T03:44:51.597Z,992.6
2019-02-10T03:45:54.013Z,992.5
2019-02-10T03:46:56.134Z,992.5
2019-02-10T03:47:58.265Z,992.5
2019-02-10T03:49:00.379Z,992.5
2019-02-10T03:50:02.868Z,992.5
2019-02-10T03:51:05.379Z,992.5
2019-02-10T03:52:07.510Z,992.5
2019-02-10T03:53:09.618Z,992.5
2019-02-10T03:54:11.756Z,992.5
2019-02-10T03:55:14.160Z,992.5
2019-02-10T03:56:16.266Z,992.4
2019-02-10T03:57:18.398Z,992.4
2019-02-10T03:58:20.551Z,992.4
2019-02-10T03:59:22.699Z,992.3
2019-02-10T04:00:24.805Z,992.3
2019-02-10T04:01:27.245Z,992.3
2019-02-10T04:02:29.660Z,992.3
2019-02-10T04:03:31.791Z,992.3
2019-02-10T04:04:33.911Z,992.2
2019-02-10T04:05:37.004Z,992.3
2019-02-10T04:06:39.493Z,992.2
2019-02-10T04:07:41.617Z,992.2
2019-02-10T04:08:43.748Z,992.2
2019-02-10T04:09:46.246Z,992.2
2019-02-10T04:10:48.360Z,992.2
2019-02-10T04:11:50.497Z,992.1
2019-02-10T04:12:52.601Z,992.1
2019-02-10T04:13:54.711Z,992.2
2019-02-10T04:14:56.837Z,992.1
2019-02-10T04:15:59.350Z,992.1
2019-02-10T04:17:01.740Z,992.1
2019-02-10T04:18:03.905Z,992.1
2019-02-10T04:19:06.029Z,992
2019-02-10T04:20:08.169Z,992.2
2019-02-10T04:21:10.614Z,992.1
2019-02-10T04:22:12.719Z,992.1
2019-02-10T04:23:15.125Z,992.1
2019-02-10T04:24:17.249Z,992
2019-02-10T04:25:19.375Z,992
2019-02-10T04:26:21.874Z,992
2019-02-10T04:27:24.003Z,992.1
2019-02-10T04:28:26.122Z,992.1
2019-02-10T04:29:28.226Z,992.1
2019-02-10T04:30:30.360Z,992
2019-02-10T04:31:32.465Z,992.1
2019-02-10T04:32:35.254Z,992
2019-02-10T04:33:38.114Z,992
2019-02-10T04:34:40.253Z,992
2019-02-10T04:35:42.362Z,992
2019-02-10T04:36:44.476Z,992
2019-02-10T04:37:47.169Z,992
2019-02-10T04:38:49.263Z,992
2019-02-10T04:39:51.775Z,991.9
2019-02-10T04:40:54.220Z,991.9
2019-02-10T04:41:56.934Z,991.9
2019-02-10T04:42:59.048Z,991.9
2019-02-10T04:44:01.482Z,991.8
2019-02-10T04:45:03.607Z,991.8
2019-02-10T04:46:05.755Z,991.8
2019-02-10T04:47:07.886Z,991.8
2019-02-10T04:48:09.996Z,991.8
2019-02-10T04:49:12.398Z,991.8
2019-02-10T04:50:14.520Z,991.8
2019-02-10T04:51:16.929Z,991.7
2019-02-10T04:52:19.058Z,991.7
2019-02-10T04:53:21.849Z,991.7
2019-02-10T04:54:23.965Z,991.8
2019-02-10T04:55:26.099Z,991.7
2019-02-10T04:56:28.226Z,991.6
2019-02-10T04:57:30.622Z,991.6
2019-02-10T04:58:32.735Z,991.6
2019-02-10T04:59:34.863Z,991.6
2019-02-10T05:00:37.281Z,991.6
2019-02-10T05:01:39.442Z,991.5
2019-02-10T05:02:41.573Z,991.5
2019-02-10T05:03:43.676Z,991.5
2019-02-10T05:04:45.801Z,991.6
2019-02-10T05:05:48.200Z,991.5
2019-02-10T05:06:50.403Z,991.5
2019-02-10T05:07:54.893Z,991.5
2019-02-10T05:08:57.030Z,991.5
2019-02-10T05:09:59.422Z,991.5
2019-02-10T05:11:01.578Z,991.5
2019-02-10T05:12:03.778Z,991.4
2019-02-10T05:13:05.880Z,991.5
2019-02-10T05:14:08.300Z,991.4
2019-02-10T05:15:10.439Z,991.4
2019-02-10T05:16:12.558Z,991.3
2019-02-10T05:17:14.955Z,991.3
2019-02-10T05:18:17.784Z,991.3
2019-02-10T05:19:19.918Z,991.3
2019-02-10T05:20:22.046Z,991.3
2019-02-10T05:21:24.188Z,991.3
2019-02-10T05:22:26.607Z,991.2
2019-02-10T05:23:28.739Z,991.2
2019-02-10T05:24:30.853Z,991.1
2019-02-10T05:25:33.397Z,991.1
2019-02-10T05:26:35.522Z,991.1
2019-02-10T05:27:37.668Z,991.2
2019-02-10T05:28:40.145Z,991.2
2019-02-10T05:29:42.374Z,991.1
2019-02-10T05:30:44.515Z,991
2019-02-10T05:31:46.932Z,991.1
2019-02-10T05:32:49.065Z,991.1
2019-02-10T05:33:51.229Z,991
2019-02-10T05:34:53.350Z,991
2019-02-10T05:35:55.482Z,991
2019-02-10T05:36:57.589Z,991
2019-02-10T05:38:04.818Z,991
2019-02-10T05:39:07.059Z,991
2019-02-10T05:40:09.481Z,990.9
2019-02-10T05:41:11.579Z,990.9
2019-02-10T05:42:13.723Z,991
2019-02-10T05:43:16.435Z,991
2019-02-10T05:44:18.571Z,990.9
2019-02-10T05:45:21.025Z,990.9
2019-02-10T05:46:23.182Z,990.8
2019-02-10T05:47:25.303Z,990.9
2019-02-10T05:48:27.439Z,990.9
2019-02-10T05:49:29.616Z,990.8
2019-02-10T05:50:31.739Z,990.8
2019-02-10T05:51:34.828Z,990.8
2019-02-10T05:52:36.941Z,990.8
2019-02-10T05:53:39.060Z,990.8
2019-02-10T05:54:41.204Z,990.8
2019-02-10T05:55:43.346Z,990.7
2019-02-10T05:56:45.541Z,990.8
2019-02-10T05:57:47.655Z,990.7
2019-02-10T05:58:49.778Z,990.6
2019-02-10T05:59:51.914Z,990.6
2019-02-10T06:00:54.044Z,990.5
2019-02-10T06:01:56.236Z,990.6
2019-02-10T06:02:58.625Z,990.5
2019-02-10T06:04:00.759Z,990.5
2019-02-10T06:05:02.879Z,990.5
2019-02-10T06:06:05.315Z,990.5
2019-02-10T06:07:07.423Z,990.5
2019-02-10T06:08:13.852Z,990.5
2019-02-10T06:09:15.981Z,990.5
2019-02-10T06:10:18.079Z,990.5
2019-02-10T06:11:20.595Z,990.4
2019-02-10T06:12:22.725Z,990.4
2019-02-10T06:13:25.143Z,990.4
2019-02-10T06:14:27.525Z,990.3
2019-02-10T06:15:29.665Z,990.3
2019-02-10T06:16:32.167Z,990.3
2019-02-10T06:17:34.278Z,990.2
2019-02-10T06:18:36.427Z,990.3
2019-02-10T06:19:38.539Z,990.2
2019-02-10T06:20:41.051Z,990.2
2019-02-10T06:21:43.182Z,990.1
2019-02-10T06:22:45.326Z,990.2
2019-02-10T06:23:47.717Z,990.1
2019-02-10T06:24:50.227Z,990.1
2019-02-10T06:25:52.673Z,990.1
2019-02-10T06:26:54.809Z,990
2019-02-10T06:27:56.954Z,990.1
2019-02-10T06:28:59.092Z,990.1
2019-02-10T06:30:01.245Z,990
2019-02-10T06:31:03.788Z,990
2019-02-10T06:32:05.919Z,990
2019-02-10T06:33:08.035Z,990
2019-02-10T06:34:10.714Z,990.1
2019-02-10T06:35:13.140Z,990
2019-02-10T06:36:17.070Z,990
2019-02-10T06:37:19.502Z,989.9
2019-02-10T06:38:23.346Z,990
2019-02-10T06:39:25.508Z,990
2019-02-10T06:40:27.634Z,990
2019-02-10T06:41:30.045Z,989.9
2019-02-10T06:42:32.171Z,989.9
2019-02-10T06:43:34.269Z,989.9
2019-02-10T06:44:36.397Z,990
2019-02-10T06:45:38.513Z,989.9
2019-02-10T06:46:40.634Z,989.9
2019-02-10T06:47:42.808Z,989.8
2019-02-10T06:48:45.493Z,989.8
2019-02-10T06:49:47.600Z,989.8
2019-02-10T06:50:49.731Z,989.8
2019-02-10T06:51:51.860Z,989.8
2019-02-10T06:52:54.246Z,989.8
2019-02-10T06:53:56.350Z,989.8
2019-02-10T06:54:58.477Z,989.7
2019-02-10T06:56:00.590Z,989.7
2019-02-10T06:57:02.700Z,989.7
2019-02-10T06:58:04.819Z,989.7
2019-02-10T06:59:06.919Z,989.8
2019-02-10T07:00:09.033Z,989.7
2019-02-10T07:01:11.160Z,989.7
2019-02-10T07:02:13.309Z,989.6
2019-02-10T07:03:15.422Z,989.7
2019-02-10T07:04:17.557Z,989.6
2019-02-10T07:05:19.681Z,989.6
2019-02-10T07:06:21.795Z,989.6
2019-02-10T07:07:23.938Z,989.5
2019-02-10T07:08:31.026Z,989.5
2019-02-10T07:09:33.520Z,989.5
2019-02-10T07:10:35.636Z,989.5
2019-02-10T07:11:37.849Z,989.5
2019-02-10T07:12:39.943Z,989.4
2019-02-10T07:13:42.452Z,989.5
2019-02-10T07:14:44.580Z,989.4
2019-02-10T07:15:46.684Z,989.4
2019-02-10T07:16:48.814Z,989.5
2019-02-10T07:17:50.912Z,989.3
2019-02-10T07:18:53.023Z,989.4
2019-02-10T07:19:55.127Z,989.5
2019-02-10T07:20:57.249Z,989.4
2019-02-10T07:21:59.351Z,989.3
2019-02-10T07:23:01.470Z,989.3
2019-02-10T07:24:03.601Z,989.3
2019-02-10T07:25:05.704Z,989.3
2019-02-10T07:26:08.119Z,989.3
2019-02-10T07:27:10.557Z,989.2
2019-02-10T07:28:12.660Z,989.2
2019-02-10T07:29:14.778Z,989.2
2019-02-10T07:30:16.910Z,989.2
2019-02-10T07:31:19.301Z,989.1
2019-02-10T07:32:21.439Z,989.1
2019-02-10T07:33:23.986Z,989.1
2019-02-10T07:34:26.770Z,989.1
2019-02-10T07:35:28.883Z,989
2019-02-10T07:36:31.020Z,989
2019-02-10T07:37:33.119Z,989
2019-02-10T07:38:39.013Z,989
2019-02-10T07:39:41.166Z,989
2019-02-10T07:40:43.266Z,989
2019-02-10T07:41:45.396Z,988.9
2019-02-10T07:42:47.505Z,988.9
2019-02-10T07:43:49.663Z,988.8
2019-02-10T07:44:51.809Z,988.8
2019-02-10T07:45:53.933Z,988.8
2019-02-10T07:46:56.329Z,988.8
2019-02-10T07:47:58.728Z,988.8
2019-02-10T07:49:01.212Z,988.8
2019-02-10T07:50:03.331Z,988.8
2019-02-10T07:51:05.820Z,988.8
2019-02-10T07:52:07.928Z,988.7
2019-02-10T07:53:10.324Z,988.7
2019-02-10T07:54:12.449Z,988.7
2019-02-10T07:55:14.594Z,988.6
2019-02-10T07:56:16.720Z,988.6
2019-02-10T07:57:18.847Z,988.6
2019-02-10T07:58:20.949Z,988.6
2019-02-10T07:59:23.071Z,988.5
2019-02-10T08:00:25.185Z,988.5
2019-02-10T08:01:27.302Z,988.5
2019-02-10T08:02:29.719Z,988.5
2019-02-10T08:03:31.849Z,988.5
2019-02-10T08:04:33.959Z,988.5
2019-02-10T08:05:36.390Z,988.3
2019-02-10T08:06:38.504Z,988.4
2019-02-10T08:07:41.174Z,988.3
2019-02-10T08:08:47.055Z,988.3
2019-02-10T08:09:49.194Z,988.3
2019-02-10T08:10:51.307Z,988.3
2019-02-10T08:11:53.715Z,988.3
2019-02-10T08:12:55.844Z,988.3
2019-02-10T08:13:57.950Z,988.2
2019-02-10T08:15:00.243Z,988.2
2019-02-10T08:16:02.948Z,988.2
2019-02-10T08:17:05.060Z,988.2
2019-02-10T08:18:07.161Z,988.2
2019-02-10T08:19:09.332Z,988.2
2019-02-10T08:20:11.438Z,988.1
2019-02-10T08:21:13.967Z,988
2019-02-10T08:22:16.249Z,988
2019-02-10T08:23:18.392Z,987.9
2019-02-10T08:24:20.513Z,987.8
2019-02-10T08:25:22.657Z,987.7
2019-02-10T08:26:25.236Z,987.7
2019-02-10T08:27:27.341Z,987.7
2019-02-10T08:28:29.470Z,987.6
2019-02-10T08:29:31.596Z,987.6
2019-02-10T08:30:33.720Z,987.5
2019-02-10T08:31:35.817Z,987.6
2019-02-10T08:32:37.945Z,987.6
2019-02-10T08:33:40.061Z,987.5
2019-02-10T08:34:42.172Z,987.5
2019-02-10T08:35:44.279Z,987.4
2019-02-10T08:36:46.409Z,987.4
2019-02-10T08:37:48.519Z,987.4
2019-02-10T08:38:54.954Z,987.3
2019-02-10T08:39:57.077Z,987.2
2019-02-10T08:40:59.179Z,987.3
2019-02-10T08:42:01.288Z,987.2
2019-02-10T08:43:03.698Z,987.1
2019-02-10T08:44:05.802Z,987.1
2019-02-10T08:45:07.919Z,987.1
2019-02-10T08:46:10.321Z,987
2019-02-10T08:47:12.422Z,987.1
2019-02-10T08:48:14.555Z,987.1
2019-02-10T08:49:16.664Z,987
2019-02-10T08:50:18.779Z,986.9
2019-02-10T08:51:20.887Z,987
2019-02-10T08:52:23.026Z,986.9
2019-02-10T08:53:25.131Z,986.8
2019-02-10T08:54:27.241Z,986.8
2019-02-10T08:55:29.365Z,986.8
2019-02-10T08:56:31.473Z,986.7
2019-02-10T08:57:33.594Z,986.7
2019-02-10T08:58:35.711Z,986.7
2019-02-10T08:59:37.827Z,986.6
2019-02-10T09:00:39.931Z,986.6
2019-02-10T09:01:42.062Z,986.6
2019-02-10T09:02:44.757Z,986.6
2019-02-10T09:03:47.542Z,986.6
2019-02-10T09:04:49.702Z,986.5
2019-02-10T09:05:52.481Z,986.5
2019-02-10T09:06:54.616Z,986.5
2019-02-10T09:07:56.763Z,986.5
2019-02-10T09:09:03.023Z,986.4
2019-02-10T09:10:05.171Z,986.3
2019-02-10T09:11:07.292Z,986.4
2019-02-10T09:12:09.436Z,986.3
2019-02-10T09:13:11.572Z,986.3
2019-02-10T09:14:13.692Z,986.3
2019-02-10T09:15:15.809Z,986.3
2019-02-10T09:16:18.244Z,986.3
2019-02-10T09:17:20.647Z,986.3
2019-02-10T09:18:22.784Z,986.2
2019-02-10T09:19:24.903Z,986.2
2019-02-10T09:20:27.003Z,986.2
2019-02-10T09:21:29.204Z,986.1
2019-02-10T09:22:31.315Z,986.2
2019-02-10T09:23:33.436Z,986.1
2019-02-10T09:24:35.538Z,986
2019-02-10T09:25:37.673Z,986
2019-02-10T09:26:39.792Z,985.9
2019-02-10T09:27:41.934Z,985.8
2019-02-10T09:28:44.062Z,985.8
2019-02-10T09:29:46.167Z,985.8
2019-02-10T09:30:48.645Z,985.8
2019-02-10T09:31:50.765Z,985.7
2019-02-10T09:32:52.908Z,985.7
2019-02-10T09:33:55.313Z,985.7
2019-02-10T09:34:57.482Z,985.6
2019-02-10T09:35:59.885Z,985.5
2019-02-10T09:37:02.032Z,985.5
2019-02-10T09:38:04.564Z,985.5
2019-02-10T09:39:11.360Z,985.5
2019-02-10T09:40:13.481Z,985.4
2019-02-10T09:41:15.996Z,985.4
2019-02-10T09:42:18.112Z,985.4
2019-02-10T09:43:20.218Z,985.3
2019-02-10T09:44:22.344Z,985.4
2019-02-10T09:45:24.451Z,985.3
2019-02-10T09:46:26.564Z,985.3
2019-02-10T09:47:28.706Z,985.2
2019-02-10T09:48:30.815Z,985.2
2019-02-10T09:49:33.222Z,985.1
2019-02-10T09:50:35.345Z,985.2
2019-02-10T09:51:37.465Z,985.1
2019-02-10T09:52:39.590Z,985
2019-02-10T09:53:42.388Z,985
2019-02-10T09:54:44.781Z,985
2019-02-10T09:55:46.901Z,985
2019-02-10T09:56:49.367Z,985
2019-02-10T09:57:51.890Z,984.9
2019-02-10T09:58:54.274Z,985
2019-02-10T09:59:56.399Z,985
2019-02-10T10:00:58.510Z,984.8
2019-02-10T10:02:00.616Z,984.9
2019-02-10T10:03:02.761Z,984.9
2019-02-10T10:04:04.883Z,984.8
2019-02-10T10:05:07.006Z,984.9
2019-02-10T10:06:09.118Z,984.8
2019-02-10T10:07:11.246Z,984.8
2019-02-10T10:08:13.637Z,984.7
2019-02-10T10:09:19.866Z,984.7
2019-02-10T10:10:22.317Z,984.7
2019-02-10T10:11:24.435Z,984.6
2019-02-10T10:12:26.605Z,984.5
2019-02-10T10:13:29.308Z,984.5
2019-02-10T10:14:31.471Z,984.4
2019-02-10T10:15:33.600Z,984.4
2019-02-10T10:16:35.719Z,984.4
2019-02-10T10:17:38.218Z,984.3
2019-02-10T10:18:40.351Z,984.3
2019-02-10T10:19:42.467Z,984.3
2019-02-10T10:20:44.866Z,984.2
2019-02-10T10:21:46.994Z,984.2
2019-02-10T10:22:49.097Z,984
2019-02-10T10:23:51.228Z,984.1
2019-02-10T10:24:53.350Z,984
2019-02-10T10:25:55.744Z,983.9
2019-02-10T10:26:57.876Z,983.9
2019-02-10T10:27:59.973Z,983.8
2019-02-10T10:29:02.086Z,983.9
2019-02-10T10:30:04.501Z,983.8
2019-02-10T10:31:06.621Z,983.8
2019-02-10T10:32:08.724Z,983.7
2019-02-10T10:33:10.847Z,983.6
2019-02-10T10:34:12.968Z,983.5
2019-02-10T10:35:15.068Z,983.5
2019-02-10T10:36:17.203Z,983.5
2019-02-10T10:37:19.304Z,983.4
2019-02-10T10:38:21.420Z,983.3
2019-02-10T10:39:27.825Z,983.4
2019-02-10T10:40:29.984Z,983.4
2019-02-10T10:41:32.102Z,983.3
2019-02-10T10:42:34.218Z,983.3
2019-02-10T10:43:36.333Z,983.2
2019-02-10T10:44:38.434Z,983.2
2019-02-10T10:45:40.562Z,983.1
2019-02-10T10:46:42.675Z,983.1
2019-02-10T10:47:45.070Z,983.1
2019-02-10T10:48:47.188Z,983
2019-02-10T10:49:49.323Z,983
2019-02-10T10:50:51.429Z,982.9
2019-02-10T10:51:53.555Z,982.9
2019-02-10T10:52:55.676Z,982.8
2019-02-10T10:53:58.058Z,982.9
2019-02-10T10:55:00.266Z,982.8
2019-02-10T10:56:02.396Z,982.9
2019-02-10T10:57:04.493Z,982.8
2019-02-10T10:58:06.648Z,982.7
2019-02-10T10:59:08.767Z,982.7
2019-02-10T11:00:10.889Z,982.7
2019-02-10T11:01:12.984Z,982.7
2019-02-10T11:02:15.108Z,982.7
2019-02-10T11:03:17.632Z,982.7
2019-02-10T11:04:20.144Z,982.7
2019-02-10T11:05:23.086Z,982.6
2019-02-10T11:06:25.217Z,982.5
2019-02-10T11:07:27.330Z,982.6
2019-02-10T11:08:29.434Z,982.6
2019-02-10T11:09:36.031Z,982.4
2019-02-10T11:10:38.139Z,982.4
2019-02-10T11:11:40.251Z,982.4
2019-02-10T11:12:42.365Z,982.4
2019-02-10T11:13:44.787Z,982.3
2019-02-10T11:14:46.896Z,982.3
2019-02-10T11:15:49.294Z,982.3
2019-02-10T11:16:51.453Z,982.3
2019-02-10T11:17:53.557Z,982.2
2019-02-10T11:18:55.679Z,982.1
2019-02-10T11:19:58.085Z,982.1
2019-02-10T11:21:00.195Z,982.1
2019-02-10T11:22:02.317Z,982
2019-02-10T11:23:04.440Z,982
2019-02-10T11:24:06.569Z,981.9
2019-02-10T11:25:08.706Z,981.8
2019-02-10T11:26:11.112Z,981.8
2019-02-10T11:27:13.222Z,981.7
2019-02-10T11:28:15.345Z,981.8
2019-02-10T11:29:17.468Z,981.8
2019-02-10T11:30:19.578Z,981.6
2019-02-10T11:31:21.705Z,981.6
2019-02-10T11:32:23.830Z,981.6
2019-02-10T11:33:25.928Z,981.6
2019-02-10T11:34:28.071Z,981.5
2019-02-10T11:35:30.180Z,981.5
2019-02-10T11:36:32.685Z,981.5
2019-02-10T11:37:34.790Z,981.3
2019-02-10T11:38:36.948Z,981.3
2019-02-10T11:39:44.203Z,981.3
2019-02-10T11:40:46.362Z,981.2
2019-02-10T11:41:48.468Z,981.1
2019-02-10T11:42:50.883Z,981.1
2019-02-10T11:43:53.271Z,981.1
2019-02-10T11:44:55.388Z,981.2
2019-02-10T11:45:57.500Z,981
2019-02-10T11:46:59.913Z,980.9
2019-02-10T11:48:02.015Z,981
2019-02-10T11:49:04.133Z,980.9
2019-02-10T11:50:06.248Z,980.9
2019-02-10T11:51:08.341Z,980.8
2019-02-10T11:52:10.469Z,980.8
2019-02-10T11:53:12.585Z,980.7
2019-02-10T11:54:15.103Z,980.6
2019-02-10T11:55:17.222Z,980.6
2019-02-10T11:56:19.339Z,980.6
2019-02-10T11:57:21.443Z,980.5
2019-02-10T11:58:23.848Z,980.4
2019-02-10T11:59:26.240Z,980.5
2019-02-10T12:00:28.348Z,980.5
2019-02-10T12:01:30.469Z,980.5
2019-02-10T12:02:38.350Z,980.4
2019-02-10T12:03:40.471Z,980.4
2019-02-10T12:04:42.586Z,980.4
2019-02-10T12:05:44.708Z,980.4
2019-02-10T12:06:46.811Z,980.4
2019-02-10T12:07:48.937Z,980.4
2019-02-10T12:08:51.045Z,980.3
2019-02-10T12:09:53.177Z,980.3
2019-02-10T12:10:55.567Z,980.2
2019-02-10T12:11:57.750Z,980
2019-02-10T12:13:00.130Z,979.9
2019-02-10T12:14:02.246Z,980.1
2019-02-10T12:15:04.382Z,980.1
2019-02-10T12:16:06.484Z,980.2
2019-02-10T12:17:08.612Z,980.1
2019-02-10T12:18:10.728Z,980.1
2019-02-10T12:19:12.863Z,980
2019-02-10T12:20:15.368Z,979.9
2019-02-10T12:21:17.508Z,979.6
2019-02-10T12:22:19.614Z,979.6
2019-02-10T12:23:22.119Z,979.8
2019-02-10T12:24:24.248Z,979.9
2019-02-10T12:25:26.663Z,979.9
2019-02-10T12:26:28.773Z,979.8
2019-02-10T12:27:30.901Z,979.7
2019-02-10T12:28:33.021Z,979.7
2019-02-10T12:29:35.129Z,979.7
2019-02-10T12:30:37.253Z,979.7
2019-02-10T12:31:39.355Z,979.6
2019-02-10T12:32:41.472Z,979.7
2019-02-10T12:33:43.614Z,979.6
2019-02-10T12:34:45.740Z,979.6
2019-02-10T12:35:48.131Z,979.6
2019-02-10T12:36:50.268Z,979.5
2019-02-10T12:37:52.684Z,979.6
2019-02-10T12:38:54.798Z,979.5
2019-02-10T12:40:00.376Z,979.5
2019-02-10T12:41:02.792Z,979.4
2019-02-10T12:42:04.922Z,979.4
2019-02-10T12:43:07.508Z,979.3
2019-02-10T12:44:09.644Z,979.3
2019-02-10T12:45:11.757Z,979.3
2019-02-10T12:46:13.880Z,979.3
2019-02-10T12:47:15.994Z,979.3
2019-02-10T12:48:18.429Z,979.2
2019-02-10T12:49:20.954Z,979.1
2019-02-10T12:50:23.056Z,979.1
2019-02-10T12:51:25.217Z,979.1
2019-02-10T12:52:27.329Z,979.1
2019-02-10T12:53:29.463Z,979
2019-02-10T12:54:31.861Z,979.1
2019-02-10T12:55:33.987Z,979.1
2019-02-10T12:56:36.093Z,979
2019-02-10T12:57:38.235Z,979
2019-02-10T12:58:40.637Z,979
2019-02-10T12:59:42.751Z,979
2019-02-10T13:00:45.171Z,978.9
2019-02-10T13:01:47.286Z,978.9
2019-02-10T13:02:49.672Z,978.8
2019-02-10T13:03:52.081Z,978.8
2019-02-10T13:04:54.182Z,978.8
2019-02-10T13:05:56.301Z,978.8
2019-02-10T13:06:58.431Z,978.7
2019-02-10T13:08:00.548Z,978.7
2019-02-10T13:09:02.647Z,978.7
2019-02-10T13:10:08.605Z,978.8
2019-02-10T13:11:10.755Z,978.8
2019-02-10T13:12:12.865Z,978.7
2019-02-10T13:13:19.712Z,978.7
2019-02-10T13:14:22.110Z,978.6
2019-02-10T13:15:24.241Z,978.6
2019-02-10T13:16:26.635Z,978.5
2019-02-10T13:17:28.756Z,978.5
2019-02-10T13:18:30.850Z,978.6
2019-02-10T13:19:32.971Z,978.5
2019-02-10T13:20:35.368Z,978.5
2019-02-10T13:21:37.756Z,978.4
2019-02-10T13:22:39.888Z,978.4
2019-02-10T13:23:41.985Z,978.4
2019-02-10T13:24:44.092Z,978.3
2019-02-10T13:25:46.251Z,978.3
2019-02-10T13:26:48.378Z,978.3
2019-02-10T13:27:50.483Z,978.3